Tampa, Florida
Traffic Map
Current Weather Conditions
Tampa, Florida
Few Clouds
Few Clouds
22°
Feels Like: 22°
Wind Chill: 22° Ceiling: Unl
Heat Index: 22° Visibility: 10mi
Dew Point: 10° Wind: 14mph
Humidity: 47% Direction: 270° (W)
Pressure: 29.91in Gusts: 21mph
Raw Report DataKTPA 241953Z 27012G18KT 10SM FEW040 22/10 A2991 RMK AO2 SLP126 T02170100
Traffic Incident Summary
Active as of:
Severity:
Category:
InformationThere was an issue retrieving the traffic information for this location. Please try a different location or try again shortly.
Advertisements
Track Severe Weather on mobile